Time;durP1;ratioP1;P1;durP2;ratioP2;P2;SDS_P1;SDS_P2;PMS_P1;PMS_P2;Temp;Humidity;BMP_temperature;BMP_pressure;BME280_temperature;BME280_humidity;BME280_pressure;Samples;Min_cycle;Max_cycle;Signal;HPM_P1;HPM_P2
2021/03/25 00:02:59;;;;;;;23.80;17.70;;;6.70;72.30;;;;;;6300851;28;20469;-64
2021/03/25 00:06:02;;;;;;;23.80;15.57;;;6.60;72.20;;;;;;6301170;28;20983;-65
2021/03/25 00:09:05;;;;;;;19.80;15.10;;;6.60;72.20;;;;;;6289413;28;20477;-65
2021/03/25 00:12:09;;;;;;;24.10;16.83;;;6.60;72.90;;;;;;6301018;28;20924;-67
2021/03/25 00:15:12;;;;;;;21.03;15.47;;;6.60;73.20;;;;;;6297476;28;20462;-65
2021/03/25 00:18:16;;;;;;;24.50;18.70;;;6.50;73.10;;;;;;6293256;28;20473;-66
2021/03/25 00:21:18;;;;;;;21.27;17.03;;;6.50;73.20;;;;;;6300280;28;20474;-65
2021/03/25 00:24:20;;;;;;;25.80;18.57;;;6.40;73.60;;;;;;6292266;28;20489;-64
2021/03/25 00:27:23;;;;;;;24.07;17.70;;;6.40;74.30;;;;;;6284956;28;20469;-64
2021/03/25 00:30:28;;;;;;;23.70;16.13;;;6.40;75.00;;;;;;6278377;28;20480;-63
2021/03/25 00:33:31;;;;;;;22.87;17.87;;;6.30;75.90;;;;;;6285279;28;20474;-63
2021/03/25 00:36:33;;;;;;;26.97;19.60;;;6.30;77.30;;;;;;6285509;28;20494;-64
2021/03/25 00:39:35;;;;;;;26.50;21.10;;;6.30;77.00;;;;;;6278170;28;20477;-63
2021/03/25 00:42:38;;;;;;;25.53;19.27;;;6.30;76.40;;;;;;6286539;28;20488;-63
2021/03/25 00:45:42;;;;;;;28.17;18.13;;;6.20;76.40;;;;;;6288727;28;20466;-64
2021/03/25 00:48:45;;;;;;;22.37;17.00;;;6.10;76.50;;;;;;6287424;28;20478;-64
2021/03/25 00:51:47;;;;;;;23.30;17.17;;;6.20;77.00;;;;;;6287732;28;20771;-65
2021/03/25 00:54:50;;;;;;;23.87;17.67;;;6.10;77.30;;;;;;6279416;28;20983;-64
2021/03/25 00:57:52;;;;;;;21.90;17.67;;;6.00;77.90;;;;;;6285856;28;20966;-64
2021/03/25 01:00:55;;;;;;;23.33;17.17;;;6.00;77.80;;;;;;6283477;28;20473;-64
2021/03/25 01:03:58;;;;;;;26.40;18.50;;;6.00;78.10;;;;;;6289054;28;20469;-64
2021/03/25 01:07:00;;;;;;;23.80;18.60;;;6.00;78.10;;;;;;6275928;28;20472;-63
2021/03/25 01:10:10;;;;;;;22.50;18.33;;;5.90;78.80;;;;;;6274952;28;20813;-64
2021/03/25 01:13:15;;;;;;;21.70;17.90;;;5.90;78.50;;;;;;6274772;28;20803;-64
2021/03/25 01:16:23;;;;;;;23.17;17.70;;;5.80;78.50;;;;;;6275073;28;20577;-64
2021/03/25 01:19:30;;;;;;;21.97;16.50;;;5.80;79.10;;;;;;6275346;28;20463;-62
2021/03/25 01:22:33;;;;;;;25.60;17.33;;;5.70;79.40;;;;;;6274919;28;21000;-62
2021/03/25 01:25:36;;;;;;;23.77;16.57;;;5.70;80.70;;;;;;6274454;28;20466;-63
2021/03/25 01:28:39;;;;;;;21.10;17.10;;;5.50;80.80;;;;;;6274642;28;20492;-64
2021/03/25 01:31:41;;;;;;;23.43;17.20;;;5.50;81.10;;;;;;6274562;28;20964;-64
2021/03/25 01:34:44;;;;;;;26.23;17.33;;;5.50;80.90;;;;;;6274422;28;20781;-64
2021/03/25 01:37:49;;;;;;;26.90;17.87;;;5.40;81.20;;;;;;6274571;28;20831;-64
2021/03/25 01:40:53;;;;;;;24.60;17.70;;;5.50;81.50;;;;;;6274497;28;20482;-64
2021/03/25 01:43:56;;;;;;;21.97;17.03;;;5.40;81.40;;;;;;6269884;28;20486;-64
2021/03/25 01:46:58;;;;;;;33.73;18.60;;;5.40;81.50;;;;;;6274418;28;20485;-65
2021/03/25 01:50:01;;;;;;;26.67;18.00;;;5.40;82.00;;;;;;6274361;28;20563;-62
2021/03/25 01:53:31;;;;;;;25.87;18.80;;;5.40;82.00;;;;;;6274378;28;20481;-64
2021/03/25 01:56:58;;;;;;;24.17;18.23;;;5.40;82.20;;;;;;6273931;28;20446;-63
2021/03/25 02:00:11;;;;;;;22.07;17.60;;;5.30;81.90;;;;;;6274270;28;20478;-63
2021/03/25 02:03:59;;;;;;;22.43;16.23;;;5.20;82.20;;;;;;6274114;28;20786;-64
2021/03/25 02:07:08;;;;;;;26.10;19.20;;;5.20;82.40;;;;;;6274438;28;20484;-63
2021/03/25 02:10:21;;;;;;;24.67;18.27;;;5.10;82.90;;;;;;6275947;28;20809;-64
2021/03/25 02:13:30;;;;;;;24.83;17.27;;;5.00;83.60;;;;;;6279006;28;20983;-64
2021/03/25 02:16:39;;;;;;;24.73;16.63;;;5.00;84.00;;;;;;6278965;28;20800;-62
2021/03/25 02:20:17;;;;;;;27.93;16.90;;;4.90;85.90;;;;;;6278895;28;20474;-62
2021/03/25 02:23:38;;;;;;;23.83;16.77;;;4.90;86.00;;;;;;6278466;28;20940;-62
2021/03/25 02:26:46;;;;;;;23.67;17.27;;;4.80;86.40;;;;;;6278912;28;20466;-62
2021/03/25 02:29:59;;;;;;;23.67;16.37;;;4.90;87.10;;;;;;6279674;28;20462;-62
2021/03/25 02:33:04;;;;;;;26.90;18.67;;;4.80;87.30;;;;;;6278865;28;20481;-62
2021/03/25 02:36:10;;;;;;;22.90;18.03;;;4.70;87.60;;;;;;6278837;28;20462;-62
2021/03/25 02:39:21;;;;;;;24.13;17.43;;;4.80;88.10;;;;;;6278572;28;20470;-63
2021/03/25 02:42:46;;;;;;;22.30;17.00;;;4.70;88.20;;;;;;6278623;28;20477;-63
2021/03/25 02:45:54;;;;;;;23.77;17.50;;;4.70;88.20;;;;;;6278333;28;20832;-64
2021/03/25 02:49:01;;;;;;;22.70;16.80;;;4.80;88.30;;;;;;6273633;28;20478;-63
2021/03/25 02:52:13;;;;;;;24.10;16.80;;;4.70;88.30;;;;;;6278406;28;20478;-62
2021/03/25 02:55:18;;;;;;;25.30;17.03;;;4.70;88.50;;;;;;6278113;28;20484;-62
2021/03/25 02:58:24;;;;;;;23.80;16.60;;;4.70;88.50;;;;;;6278213;28;20470;-62
2021/03/25 03:01:26;;;;;;;24.27;18.30;;;4.80;88.70;;;;;;6278140;28;20493;-61
2021/03/25 03:04:33;;;;;;;23.07;16.33;;;4.70;88.80;;;;;;6278503;28;20489;-63
2021/03/25 03:07:43;;;;;;;23.50;17.50;;;4.70;89.90;;;;;;6278122;28;20474;-63
2021/03/25 03:10:48;;;;;;;22.37;16.33;;;4.60;89.30;;;;;;6277704;28;20485;-63
2021/03/25 03:13:55;;;;;;;23.73;18.10;;;4.50;89.40;;;;;;6277768;28;20565;-63
2021/03/25 03:17:04;;;;;;;30.90;18.40;;;4.50;90.30;;;;;;6277729;28;20971;-64
2021/03/25 03:20:11;;;;;;;23.00;16.20;;;4.40;90.20;;;;;;6277522;28;20489;-63
2021/03/25 03:23:14;;;;;;;24.57;17.10;;;4.40;90.20;;;;;;6275776;28;20486;-63
2021/03/25 03:26:23;;;;;;;25.60;18.40;;;4.40;90.40;;;;;;6277405;28;20505;-63
2021/03/25 03:29:28;;;;;;;27.50;17.63;;;4.50;90.50;;;;;;6277822;28;20450;-64
2021/03/25 03:32:37;;;;;;;21.70;15.47;;;4.40;90.40;;;;;;6277546;28;20541;-63
2021/03/25 03:35:45;;;;;;;26.40;17.27;;;4.40;90.50;;;;;;6277546;28;20471;-63
2021/03/25 03:38:51;;;;;;;24.63;18.50;;;4.40;90.60;;;;;;6277105;28;20466;-63
2021/03/25 03:41:57;;;;;;;28.43;19.17;;;4.40;90.80;;;;;;6277698;28;20497;-63
2021/03/25 03:45:01;;;;;;;30.53;20.40;;;4.40;91.10;;;;;;6277128;28;20808;-62
2021/03/25 03:48:07;;;;;;;29.50;20.77;;;4.30;90.90;;;;;;6277074;28;20466;-62
2021/03/25 03:51:15;;;;;;;27.63;19.60;;;4.30;91.00;;;;;;6277015;28;20470;-64
2021/03/25 03:54:18;;;;;;;22.53;17.50;;;4.30;91.40;;;;;;6277011;28;20470;-64
2021/03/25 03:57:27;;;;;;;28.80;18.87;;;4.30;91.40;;;;;;6277142;28;20485;-62
2021/03/25 04:00:35;;;;;;;25.40;17.87;;;4.30;91.50;;;;;;6277106;28;20470;-62
2021/03/25 04:03:41;;;;;;;27.70;18.67;;;4.20;91.60;;;;;;6276726;28;20812;-63
2021/03/25 04:06:48;;;;;;;23.50;17.40;;;4.30;91.80;;;;;;6276503;28;20844;-62
2021/03/25 04:10:02;;;;;;;28.97;18.93;;;4.20;91.70;;;;;;6276513;28;20470;-63
2021/03/25 04:13:10;;;;;;;28.03;18.87;;;4.20;91.80;;;;;;6276666;28;20952;-63
2021/03/25 04:16:15;;;;;;;26.53;18.63;;;4.20;91.90;;;;;;6276744;28;20623;-63
2021/03/25 04:19:22;;;;;;;25.70;15.90;;;4.10;92.00;;;;;;6276286;28;20467;-64
2021/03/25 04:22:28;;;;;;;27.50;18.80;;;4.10;92.00;;;;;;6276185;28;20474;-64
2021/03/25 04:25:37;;;;;;;24.87;19.63;;;4.10;92.00;;;;;;6275974;28;20471;-63
2021/03/25 04:28:42;;;;;;;30.73;18.90;;;4.00;92.00;;;;;;6275827;28;20477;-64
2021/03/25 04:31:44;;;;;;;24.90;19.73;;;4.00;92.20;;;;;;6276181;28;20964;-64
2021/03/25 04:34:48;;;;;;;25.27;20.10;;;4.00;92.30;;;;;;6275207;28;20485;-63
2021/03/25 04:37:53;;;;;;;27.53;18.87;;;4.00;92.50;;;;;;6275712;28;20800;-62
2021/03/25 04:40:57;;;;;;;30.10;20.43;;;3.90;92.50;;;;;;6275572;28;20471;-64
2021/03/25 04:44:31;;;;;;;28.17;19.10;;;4.00;92.50;;;;;;6275116;28;20574;-63
2021/03/25 04:47:36;;;;;;;23.90;18.43;;;3.90;92.60;;;;;;6275760;28;20430;-64
2021/03/25 04:50:42;;;;;;;23.67;17.03;;;4.00;92.70;;;;;;6274539;28;20943;-64
2021/03/25 04:53:47;;;;;;;29.10;19.30;;;4.00;92.70;;;;;;6265817;28;20541;-63
2021/03/25 04:56:50;;;;;;;33.00;21.23;;;3.90;92.70;;;;;;6275278;28;20467;-63
2021/03/25 04:59:54;;;;;;;26.30;17.40;;;3.80;93.00;;;;;;6274986;28;20481;-64
2021/03/25 05:03:00;;;;;;;26.57;18.27;;;3.90;93.10;;;;;;6274534;28;20986;-64
2021/03/25 05:06:02;;;;;;;33.63;18.27;;;3.90;93.10;;;;;;6275036;28;20476;-62
2021/03/25 05:09:06;;;;;;;29.53;19.57;;;3.90;93.00;;;;;;6274936;28;21013;-64
2021/03/25 05:12:14;;;;;;;26.30;18.50;;;3.90;93.00;;;;;;6275175;28;20478;-64
2021/03/25 05:15:19;;;;;;;28.80;18.50;;;3.90;92.90;;;;;;6274936;28;20474;-63
2021/03/25 05:18:29;;;;;;;27.20;17.80;;;3.90;93.00;;;;;;6275180;28;20478;-64
2021/03/25 05:21:39;;;;;;;25.90;19.20;;;3.90;92.90;;;;;;6274918;28;20586;-64
2021/03/25 05:24:46;;;;;;;24.33;17.27;;;4.00;93.00;;;;;;6274722;28;20527;-63
2021/03/25 05:27:53;;;;;;;26.23;17.57;;;4.10;93.10;;;;;;6274519;28;20485;-63
2021/03/25 05:30:56;;;;;;;28.60;17.73;;;4.20;92.90;;;;;;6274779;28;20478;-63
2021/03/25 05:34:02;;;;;;;26.87;17.37;;;4.20;92.80;;;;;;6274789;28;20470;-63
2021/03/25 05:37:07;;;;;;;27.17;18.90;;;4.20;92.80;;;;;;6275019;28;20538;-63
2021/03/25 05:40:16;;;;;;;25.90;18.13;;;4.20;92.80;;;;;;6274669;28;20462;-63
2021/03/25 05:43:44;;;;;;;26.13;18.40;;;4.20;92.80;;;;;;6274231;28;20964;-62
2021/03/25 05:46:52;;;;;;;27.57;17.43;;;4.40;93.10;;;;;;6273886;28;20943;-63
2021/03/25 05:50:06;;;;;;;29.23;19.30;;;4.40;92.70;;;;;;6274556;28;20470;-64
2021/03/25 05:53:18;;;;;;;24.00;17.57;;;4.50;92.60;;;;;;6274298;28;20470;-64
2021/03/25 05:56:40;;;;;;;30.70;18.67;;;4.50;92.80;;;;;;6269740;28;20451;-64
2021/03/25 05:59:48;;;;;;;28.90;19.07;;;4.50;92.90;;;;;;6274440;28;20985;-63
2021/03/25 06:02:57;;;;;;;30.33;19.57;;;4.50;92.70;;;;;;6274440;28;20467;-64
2021/03/25 06:06:01;;;;;;;30.90;21.37;;;4.70;92.70;;;;;;6274367;28;20485;-64
2021/03/25 06:09:08;;;;;;;32.40;21.30;;;4.80;92.60;;;;;;6274368;28;20470;-64
2021/03/25 06:12:18;;;;;;;29.23;19.07;;;4.80;92.50;;;;;;6274002;28;20476;-64
2021/03/25 06:15:53;;;;;;;32.83;19.90;;;4.90;92.40;;;;;;6275187;28;20474;-63
2021/03/25 06:19:11;;;;;;;33.67;20.23;;;5.00;92.10;;;;;;6274082;28;20470;-62
2021/03/25 06:22:20;;;;;;;33.03;22.13;;;5.10;92.00;;;;;;6274333;28;20474;-63
2021/03/25 06:25:42;;;;;;;31.83;19.90;;;5.10;91.80;;;;;;6274021;28;20485;-62
2021/03/25 06:28:48;;;;;;;35.80;20.00;;;5.30;91.70;;;;;;6273900;28;20481;-64
2021/03/25 06:31:57;;;;;;;32.00;19.43;;;5.40;91.60;;;;;;6273968;28;20928;-63
2021/03/25 06:35:04;;;;;;;34.57;21.03;;;5.50;91.60;;;;;;6273716;28;20471;-64
2021/03/25 06:38:15;;;;;;;27.27;18.70;;;5.70;91.30;;;;;;6274407;28;20480;-64
2021/03/25 06:41:22;;;;;;;28.93;19.80;;;6.00;90.90;;;;;;6273842;28;20781;-64
2021/03/25 06:44:38;;;;;;;29.70;18.83;;;6.50;90.80;;;;;;6273723;28;20454;-64
2021/03/25 06:47:48;;;;;;;30.80;16.60;;;7.90;89.70;;;;;;6273927;28;20481;-64
2021/03/25 06:50:52;;;;;;;27.47;19.20;;;10.20;78.90;;;;;;6274240;28;20481;-64
2021/03/25 06:54:09;;;;;;;24.67;18.10;;;12.30;70.40;;;;;;6273824;28;20481;-63
2021/03/25 06:57:17;;;;;;;26.83;18.70;;;14.20;60.10;;;;;;6277265;28;20482;-64
2021/03/25 07:00:23;;;;;;;20.30;16.03;;;15.90;53.90;;;;;;6278322;28;20511;-63
2021/03/25 07:03:27;;;;;;;21.97;17.17;;;16.80;48.60;;;;;;6268584;28;20478;-64
2021/03/25 07:06:32;;;;;;;23.60;18.87;;;17.40;46.00;;;;;;6278480;28;20493;-64
2021/03/25 07:09:37;;;;;;;23.20;18.00;;;18.30;44.20;;;;;;6277639;28;20466;-65
2021/03/25 07:12:44;;;;;;;21.57;17.87;;;19.60;41.80;;;;;;6277839;28;20474;-63
2021/03/25 07:16:09;;;;;;;19.90;17.50;;;20.60;39.50;;;;;;6280554;28;20840;-63
2021/03/25 07:19:16;;;;;;;22.07;18.47;;;21.70;36.20;;;;;;6277656;28;20231;-64
2021/03/25 07:22:25;;;;;;;19.60;17.13;;;22.60;34.80;;;;;;6285944;28;20250;-64
2021/03/25 07:25:29;;;;;;;21.60;17.87;;;23.50;32.40;;;;;;6289668;28;20292;-65
2021/03/25 07:28:32;;;;;;;22.10;19.20;;;24.50;31.00;;;;;;6287934;28;20231;-65
2021/03/25 07:31:40;;;;;;;22.67;20.03;;;25.40;30.00;;;;;;6287766;28;20261;-64
2021/03/25 07:34:45;;;;;;;22.00;17.80;;;26.40;28.50;;;;;;6289410;28;20224;-65
2021/03/25 07:37:47;;;;;;;22.53;20.13;;;27.20;27.20;;;;;;6287218;28;20229;-64
2021/03/25 07:41:19;;;;;;;19.47;17.47;;;27.90;26.00;;;;;;6285814;28;20234;-65
2021/03/25 07:44:38;;;;;;;22.53;19.20;;;28.30;25.10;;;;;;6287584;28;20225;-65
2021/03/25 07:48:15;;;;;;;21.60;17.90;;;27.80;25.20;;;;;;6276755;28;20227;-65
2021/03/25 07:51:18;;;;;;;22.30;19.90;;;29.00;24.70;;;;;;6300830;28;20234;-65
2021/03/25 07:54:28;;;;;;;22.60;20.17;;;29.50;23.60;;;;;;6293852;28;20219;-64
2021/03/25 07:57:40;;;;;;;22.07;19.90;;;30.00;23.00;;;;;;6285621;28;20226;-65
2021/03/25 08:00:42;;;;;;;22.57;20.27;;;30.60;22.70;;;;;;6297381;28;20570;-65
2021/03/25 08:03:51;;;;;;;23.43;20.93;;;30.90;22.30;;;;;;6286783;28;20219;-65
2021/03/25 08:07:04;;;;;;;22.70;20.40;;;30.20;22.10;;;;;;6267108;28;20246;-63
2021/03/25 08:10:20;;;;;;;25.13;22.83;;;30.70;22.20;;;;;;6276302;28;20242;-64
2021/03/25 08:13:26;;;;;;;24.97;22.33;;;31.30;21.50;;;;;;6276846;28;20246;-64
2021/03/25 08:16:31;;;;;;;22.97;20.60;;;31.00;21.50;;;;;;6287737;28;20231;-64
2021/03/25 08:19:48;;;;;;;26.53;24.03;;;31.10;22.00;;;;;;6289263;28;20305;-64
2021/03/25 08:23:16;;;;;;;24.43;22.23;;;31.40;21.80;;;;;;6278136;28;20580;-64
2021/03/25 08:26:24;;;;;;;24.10;21.70;;;29.80;22.50;;;;;;6277529;28;20222;-66
2021/03/25 08:29:34;;;;;;;24.83;22.47;;;30.80;22.00;;;;;;6301453;28;20287;-65
2021/03/25 08:32:54;;;;;;;24.70;22.40;;;30.90;21.60;;;;;;6301098;28;20234;-62
2021/03/25 08:36:07;;;;;;;25.45;22.98;;;31.60;21.30;;;;;;6301185;28;20239;-65
2021/03/25 08:39:27;;;;;;;24.85;22.63;;;32.90;20.70;;;;;;6284755;28;20227;-65
2021/03/25 08:42:33;;;;;;;23.95;21.75;;;34.00;19.70;;;;;;6286441;28;20223;-66
2021/03/25 08:45:48;;;;;;;26.35;23.90;;;34.30;19.20;;;;;;6300532;28;20317;-65
2021/03/25 08:48:56;;;;;;;26.27;23.88;;;35.20;18.90;;;;;;6299816;28;20229;-62
2021/03/25 08:52:04;;;;;;;23.65;21.65;;;35.60;18.30;;;;;;6285792;28;20247;-65
2021/03/25 08:55:25;;;;;;;25.95;23.25;;;36.90;18.00;;;;;;6287771;28;20238;-64
2021/03/25 08:58:31;;;;;;;27.10;24.60;;;37.60;17.20;;;;;;6294679;28;20806;-63
2021/03/25 09:01:50;;;;;;;25.35;22.95;;;37.20;17.10;;;;;;6275005;28;20254;-63
2021/03/25 09:04:56;;;;;;;26.00;23.77;;;36.90;17.50;;;;;;6275028;28;20231;-64
2021/03/25 09:08:04;;;;;;;24.55;22.17;;;36.50;17.50;;;;;;6287858;28;20218;-64
2021/03/25 09:11:12;;;;;;;25.90;22.77;;;37.50;16.80;;;;;;6299588;28;20706;-64
2021/03/25 09:14:21;;;;;;;23.25;21.25;;;38.70;16.90;;;;;;6299421;28;20234;-65
2021/03/25 09:17:39;;;;;;;24.15;22.20;;;39.30;16.20;;;;;;6299708;28;20640;-65
2021/03/25 09:20:51;;;;;;;23.45;21.25;;;40.10;15.80;;;;;;6298623;28;20561;-66
2021/03/25 09:24:12;;;;;;;23.08;21.17;;;41.00;15.30;;;;;;6296060;28;20277;-65
2021/03/25 09:27:15;;;;;;;21.88;20.00;;;41.20;14.80;;;;;;6274467;28;20265;-66
2021/03/25 09:30:32;;;;;;;21.35;19.33;;;41.40;14.60;;;;;;6274505;28;20318;-65
2021/03/25 09:33:55;;;;;;;21.15;19.27;;;42.00;14.40;;;;;;6274124;28;20596;-65
2021/03/25 09:36:58;;;;;;;22.63;20.63;;;42.30;14.00;;;;;;6269867;28;20231;-66
2021/03/25 09:40:27;;;;;;;24.15;21.75;;;41.60;14.70;;;;;;6273954;28;20238;-66
2021/03/25 09:43:42;;;;;;;19.75;18.05;;;42.60;14.20;;;;;;6273589;28;20377;-66
2021/03/25 09:46:45;;;;;;;20.95;18.92;;;42.80;13.60;;;;;;6273449;28;20693;-65
2021/03/25 09:49:53;;;;;;;20.25;18.55;;;43.00;13.50;;;;;;6273855;28;20267;-67
2021/03/25 09:53:06;;;;;;;20.92;19.17;;;43.50;13.50;;;;;;6274302;28;20237;-65
2021/03/25 09:56:32;;;;;;;22.00;20.20;;;44.40;13.40;;;;;;6273898;28;20688;-66
2021/03/25 09:59:47;;;;;;;20.13;18.05;;;44.20;12.90;;;;;;6290498;28;20218;-64
2021/03/25 10:02:58;;;;;;;18.25;16.85;;;43.50;13.40;;;;;;6299386;28;20287;-65
2021/03/25 10:06:00;;;;;;;21.17;18.95;;;43.90;13.10;;;;;;6298015;28;20301;-63
2021/03/25 10:09:03;;;;;;;18.27;16.88;;;42.80;13.50;;;;;;6298526;28;20680;-60
2021/03/25 10:12:10;;;;;;;18.63;17.20;;;42.60;13.30;;;;;;6298390;28;20246;-59
2021/03/25 10:15:43;;;;;;;17.63;16.13;;;42.20;13.60;;;;;;6289591;28;20236;-63
2021/03/25 10:18:55;;;;;;;17.20;15.90;;;41.30;13.80;;;;;;6295473;28;20679;-62
2021/03/25 10:21:59;;;;;;;16.00;14.80;;;41.40;13.80;;;;;;6298115;28;20238;-63
2021/03/25 10:25:02;;;;;;;16.85;15.40;;;40.90;13.80;;;;;;6298290;28;20226;-63
2021/03/25 10:28:09;;;;;;;15.68;14.38;;;40.90;13.80;;;;;;6298408;28;20234;-61
2021/03/25 10:31:16;;;;;;;15.75;14.25;;;38.80;14.60;;;;;;6300021;28;20309;-63
2021/03/25 10:34:22;;;;;;;15.18;13.88;;;36.70;15.10;;;;;;6303121;28;20222;-63
2021/03/25 10:37:34;;;;;;;17.27;15.88;;;34.80;16.50;;;;;;6302719;28;20241;-62
2021/03/25 10:40:38;;;;;;;16.90;15.40;;;32.60;17.90;;;;;;6302759;28;20226;-63
2021/03/25 10:43:41;;;;;;;17.42;15.55;;;31.50;18.70;;;;;;6302629;28;20554;-63
2021/03/25 10:46:44;;;;;;;15.85;14.38;;;30.10;19.40;;;;;;6303546;28;20672;-63
2021/03/25 10:49:50;;;;;;;16.27;14.67;;;29.00;20.40;;;;;;6302041;28;20262;-65
2021/03/25 10:52:53;;;;;;;15.57;14.13;;;27.90;21.10;;;;;;6278078;28;20231;-64
2021/03/25 10:56:05;;;;;;;16.20;14.73;;;27.00;22.00;;;;;;6277711;28;20226;-64
2021/03/25 10:59:24;;;;;;;15.90;14.17;;;26.20;22.80;;;;;;6290568;28;20241;-64
2021/03/25 11:02:28;;;;;;;16.30;13.40;;;25.70;23.50;;;;;;6302892;28;20329;-64
2021/03/25 11:05:32;;;;;;;16.47;14.77;;;24.90;24.00;;;;;;6302765;28;20269;-65
2021/03/25 11:08:39;;;;;;;16.27;13.87;;;24.60;24.50;;;;;;6302740;28;20198;-64
2021/03/25 11:11:42;;;;;;;19.70;13.70;;;24.30;25.10;;;;;;6302161;28;20238;-65
2021/03/25 11:14:51;;;;;;;15.87;13.83;;;24.40;24.80;;;;;;6302813;28;20222;-69
2021/03/25 11:17:54;;;;;;;16.93;14.70;;;23.90;25.10;;;;;;6297549;28;20592;-69
2021/03/25 11:20:57;;;;;;;15.37;13.83;;;22.40;26.70;;;;;;6302090;28;20589;-69
2021/03/25 11:24:08;;;;;;;17.20;14.17;;;21.90;27.20;;;;;;6302206;28;20235;-66
2021/03/25 11:27:13;;;;;;;17.60;15.80;;;22.70;27.10;;;;;;6302337;28;20227;-72
2021/03/25 11:30:31;;;;;;;15.63;14.03;;;23.40;26.80;;;;;;6302180;28;20241;-66
2021/03/25 11:33:39;;;;;;;15.10;13.50;;;23.60;26.40;;;;;;6302196;28;20227;-71
2021/03/25 11:36:45;;;;;;;16.77;13.50;;;23.70;26.40;;;;;;6302036;28;20231;-71
2021/03/25 11:39:59;;;;;;;16.67;13.60;;;23.40;26.30;;;;;;6302061;28;20257;-71
2021/03/25 11:43:06;;;;;;;16.40;13.10;;;23.70;26.70;;;;;;6300695;28;20658;-70
2021/03/25 11:46:11;;;;;;;15.57;13.10;;;24.00;26.20;;;;;;6301694;28;20242;-72
2021/03/25 11:49:23;;;;;;;17.40;14.03;;;23.60;26.20;;;;;;6301646;28;20579;-66
2021/03/25 11:52:25;;;;;;;15.73;13.37;;;23.10;26.20;;;;;;6281016;28;20579;-67
2021/03/25 11:55:33;;;;;;;16.90;13.60;;;22.90;26.70;;;;;;6276487;28;20231;-71
2021/03/25 11:58:36;;;;;;;14.10;12.60;;;23.10;26.50;;;;;;6284906;28;20231;-71
2021/03/25 12:01:39;;;;;;;15.20;13.57;;;23.20;26.70;;;;;;6301062;28;20568;-71
2021/03/25 12:04:42;;;;;;;16.47;12.63;;;23.20;26.10;;;;;;6301029;28;20253;-70
2021/03/25 12:07:44;;;;;;;14.77;13.17;;;23.10;26.00;;;;;;6301039;28;20564;-70
2021/03/25 12:11:09;;;;;;;14.30;12.27;;;22.80;25.80;;;;;;6301141;28;20376;-66
2021/03/25 12:14:12;;;;;;;11.63;10.60;;;22.50;25.90;;;;;;6300834;28;20308;-66
2021/03/25 12:17:23;;;;;;;12.53;11.20;;;22.40;26.20;;;;;;6301134;28;20296;-70
2021/03/25 12:20:31;;;;;;;11.77;10.30;;;22.50;26.30;;;;;;6296000;28;20203;-70
2021/03/25 12:23:36;;;;;;;14.50;12.47;;;22.70;26.30;;;;;;6300821;28;20231;-66
2021/03/25 12:26:39;;;;;;;20.03;13.70;;;22.30;26.50;;;;;;6300382;28;20587;-70
2021/03/25 12:29:41;;;;;;;14.33;12.80;;;21.50;27.20;;;;;;6300869;28;20223;-68
2021/03/25 12:32:44;;;;;;;13.57;12.20;;;21.60;27.80;;;;;;6300753;28;20379;-66
2021/03/25 12:35:48;;;;;;;12.40;11.10;;;21.20;28.00;;;;;;6300685;28;20240;-68
2021/03/25 12:38:50;;;;;;;13.77;12.03;;;21.40;28.10;;;;;;6300528;28;20237;-67
2021/03/25 12:42:14;;;;;;;13.07;11.00;;;21.30;27.80;;;;;;6299976;28;20231;-68
2021/03/25 12:45:30;;;;;;;13.10;11.73;;;21.70;28.10;;;;;;6300150;28;20227;-69
2021/03/25 12:48:35;;;;;;;13.47;10.30;;;21.40;28.10;;;;;;6299993;28;20242;-67
2021/03/25 12:51:37;;;;;;;13.00;11.53;;;21.20;28.50;;;;;;6284542;28;20235;-66
2021/03/25 12:54:39;;;;;;;12.53;11.23;;;21.40;28.70;;;;;;6274989;28;20224;-70
2021/03/25 12:57:42;;;;;;;13.93;12.53;;;21.80;28.40;;;;;;6276239;28;20314;-66
2021/03/25 13:00:44;;;;;;;15.00;13.50;;;22.30;27.90;;;;;;6299889;28;20230;-69
2021/03/25 13:04:03;;;;;;;13.97;12.60;;;22.60;27.40;;;;;;6299991;28;20233;-66
2021/03/25 13:07:05;;;;;;;14.27;12.27;;;22.50;27.70;;;;;;6299660;28;20304;-70
2021/03/25 13:10:08;;;;;;;14.43;12.93;;;22.30;28.50;;;;;;6299819;28;20281;-66
2021/03/25 13:13:13;;;;;;;12.60;11.30;;;22.30;28.70;;;;;;6299580;28;20321;-68
2021/03/25 13:16:16;;;;;;;15.23;12.30;;;22.50;28.10;;;;;;6299506;28;20237;-65
2021/03/25 13:19:22;;;;;;;13.40;12.00;;;22.20;28.30;;;;;;6299605;28;20238;-63
2021/03/25 13:22:25;;;;;;;13.43;12.10;;;21.60;29.00;;;;;;6299358;28;20231;-63
2021/03/25 13:25:30;;;;;;;13.90;12.50;;;21.10;29.40;;;;;;6292346;28;20230;-63
2021/03/25 13:28:32;;;;;;;15.50;13.10;;;20.70;30.10;;;;;;6298994;28;20273;-68
2021/03/25 13:31:35;;;;;;;15.83;13.13;;;20.50;29.70;;;;;;6299602;28;20231;-65
2021/03/25 13:34:38;;;;;;;16.03;11.70;;;20.40;30.00;;;;;;6299506;28;20223;-59
2021/03/25 13:37:41;;;;;;;15.00;13.23;;;20.50;30.30;;;;;;6298879;28;20309;-69
2021/03/25 13:40:44;;;;;;;15.13;13.37;;;20.30;30.40;;;;;;6299123;28;20231;-62
2021/03/25 13:43:47;;;;;;;15.97;13.30;;;20.30;30.60;;;;;;6299179;28;20250;-60
2021/03/25 13:46:49;;;;;;;17.20;14.50;;;20.20;30.90;;;;;;6293144;28;20287;-62
2021/03/25 13:49:52;;;;;;;16.20;12.30;;;19.40;31.80;;;;;;6282673;28;20569;-69
2021/03/25 13:52:55;;;;;;;17.77;13.03;;;18.60;33.10;;;;;;6297704;28;20234;-70
2021/03/25 13:56:00;;;;;;;15.87;13.47;;;18.40;33.30;;;;;;6285222;28;20230;-70
2021/03/25 13:59:02;;;;;;;15.50;12.60;;;18.50;33.20;;;;;;6286256;28;20564;-69
2021/03/25 14:02:05;;;;;;;18.30;14.40;;;18.70;32.90;;;;;;6298642;28;20230;-70
2021/03/25 14:05:10;;;;;;;22.17;15.30;;;19.00;32.80;;;;;;6298423;28;20231;-67
2021/03/25 14:08:13;;;;;;;16.23;13.07;;;19.00;33.20;;;;;;6303650;28;20245;-68
2021/03/25 14:11:17;;;;;;;14.93;12.57;;;19.20;33.20;;;;;;6303601;28;20572;-70
2021/03/25 14:14:19;;;;;;;17.43;13.17;;;19.00;32.60;;;;;;6303603;28;20207;-68
2021/03/25 14:17:22;;;;;;;14.77;13.23;;;19.00;32.70;;;;;;6304097;28;20241;-68
2021/03/25 14:20:27;;;;;;;15.97;12.70;;;18.90;33.40;;;;;;6300457;28;20200;-69
2021/03/25 14:23:29;;;;;;;16.60;13.30;;;18.90;33.50;;;;;;6278740;28;20681;-72
2021/03/25 14:26:32;;;;;;;16.43;14.73;;;18.90;33.50;;;;;;6278714;28;20334;-66
2021/03/25 14:29:34;;;;;;;18.77;13.93;;;18.80;33.60;;;;;;6278858;28;20215;-69
2021/03/25 14:32:36;;;;;;;17.70;12.90;;;18.30;34.30;;;;;;6278478;28;20466;-70
2021/03/25 14:35:42;;;;;;;16.07;13.17;;;18.10;34.30;;;;;;6278223;28;20246;-63
2021/03/25 14:38:44;;;;;;;17.80;13.90;;;18.00;35.00;;;;;;6278290;28;20540;-65
2021/03/25 14:41:46;;;;;;;16.00;11.47;;;18.00;35.10;;;;;;6278561;28;20573;-65
2021/03/25 14:44:49;;;;;;;15.73;13.60;;;18.00;35.80;;;;;;6277687;28;20470;-64
2021/03/25 14:47:52;;;;;;;17.07;12.83;;;18.00;35.80;;;;;;6277892;28;20462;-65
2021/03/25 14:50:57;;;;;;;15.83;13.60;;;18.00;36.50;;;;;;6278111;28;20470;-68
2021/03/25 14:53:59;;;;;;;18.93;14.03;;;17.90;35.80;;;;;;6277632;28;20470;-68
2021/03/25 14:57:01;;;;;;;18.00;14.67;;;17.80;36.40;;;;;;6300173;28;20560;-68
2021/03/25 15:00:05;;;;;;;20.40;14.30;;;17.70;36.70;;;;;;6287126;28;20798;-67
2021/03/25 15:03:11;;;;;;;15.47;13.77;;;17.60;36.40;;;;;;6290494;28;20564;-68
2021/03/25 15:06:16;;;;;;;18.97;13.90;;;17.50;36.70;;;;;;6278671;28;20816;-68
2021/03/25 15:09:19;;;;;;;24.43;14.47;;;17.50;36.70;;;;;;6295184;28;20469;-67
2021/03/25 15:12:21;;;;;;;16.20;14.70;;;17.40;36.70;;;;;;6279574;28;20506;-67
2021/03/25 15:15:27;;;;;;;16.53;13.37;;;17.30;36.90;;;;;;6293076;28;20472;-68
2021/03/25 15:18:29;;;;;;;20.30;14.57;;;17.30;37.20;;;;;;6288320;28;20951;-68
2021/03/25 15:21:33;;;;;;;17.93;14.30;;;17.30;37.20;;;;;;6288804;28;20974;-68
2021/03/25 15:24:35;;;;;;;14.77;13.10;;;17.30;37.20;;;;;;6288574;28;20478;-63
2021/03/25 15:27:39;;;;;;;19.73;14.30;;;17.40;37.40;;;;;;6285806;28;20485;-62
2021/03/25 15:30:43;;;;;;;17.30;13.60;;;17.40;37.50;;;;;;6292093;28;20465;-63
2021/03/25 15:33:45;;;;;;;18.20;15.20;;;17.40;37.40;;;;;;6268420;28;20488;-63
2021/03/25 15:36:49;;;;;;;19.33;14.30;;;17.40;37.40;;;;;;6276882;28;20837;-64
2021/03/25 15:39:51;;;;;;;15.60;12.70;;;17.50;37.50;;;;;;6276819;28;20489;-63
2021/03/25 15:42:54;;;;;;;20.03;14.47;;;17.40;37.30;;;;;;6276773;28;20982;-63
2021/03/25 15:45:56;;;;;;;15.67;13.43;;;17.30;37.50;;;;;;6280979;28;20469;-63
2021/03/25 15:48:59;;;;;;;17.00;14.67;;;17.30;37.50;;;;;;6297284;28;20470;-63
2021/03/25 15:52:03;;;;;;;17.90;14.30;;;17.30;37.70;;;;;;6290704;28;20479;-62
2021/03/25 15:55:07;;;;;;;17.30;14.60;;;17.20;37.80;;;;;;6293093;28;20957;-61
2021/03/25 15:58:25;;;;;;;18.63;14.53;;;17.10;37.90;;;;;;6283392;28;20954;-63